sensor_id;sensor_type;location;lat;lon;timestamp;P1;durP1;ratioP1;P2;durP2;ratioP2
36593;SDS011;22603;47.900;8.146;2022-11-06T00:00:13;13.33;;;3.00;;
36593;SDS011;22603;47.900;8.146;2022-11-06T00:03:01;53.27;;;3.20;;
36593;SDS011;22603;47.900;8.146;2022-11-06T00:05:49;26.63;;;3.70;;
36593;SDS011;22603;47.900;8.146;2022-11-06T00:08:57;21.33;;;3.43;;
36593;SDS011;22603;47.900;8.146;2022-11-06T00:11:44;3.63;;;1.30;;
36593;SDS011;22603;47.900;8.146;2022-11-06T00:14:32;4.63;;;1.63;;
36593;SDS011;22603;47.900;8.146;2022-11-06T00:17:20;4.43;;;1.87;;
36593;SDS011;22603;47.900;8.146;2022-11-06T00:20:08;3.53;;;1.50;;
36593;SDS011;22603;47.900;8.146;2022-11-06T00:22:56;5.07;;;1.67;;
36593;SDS011;22603;47.900;8.146;2022-11-06T00:25:45;7.33;;;1.77;;
36593;SDS011;22603;47.900;8.146;2022-11-06T00:28:31;5.33;;;2.00;;
36593;SDS011;22603;47.900;8.146;2022-11-06T00:31:19;8.70;;;2.43;;
36593;SDS011;22603;47.900;8.146;2022-11-06T00:34:09;4.90;;;2.00;;
36593;SDS011;22603;47.900;8.146;2022-11-06T00:36:56;3.80;;;1.43;;
36593;SDS011;22603;47.900;8.146;2022-11-06T00:39:42;5.63;;;1.73;;
36593;SDS011;22603;47.900;8.146;2022-11-06T00:42:31;31.90;;;2.23;;
36593;SDS011;22603;47.900;8.146;2022-11-06T00:45:18;2.17;;;1.07;;
36593;SDS011;22603;47.900;8.146;2022-11-06T00:48:05;13.67;;;2.10;;
36593;SDS011;22603;47.900;8.146;2022-11-06T00:50:52;4.90;;;1.63;;
36593;SDS011;22603;47.900;8.146;2022-11-06T00:53:40;2.70;;;1.40;;
36593;SDS011;22603;47.900;8.146;2022-11-06T00:56:28;3.43;;;1.63;;
36593;SDS011;22603;47.900;8.146;2022-11-06T00:59:17;3.00;;;1.40;;
36593;SDS011;22603;47.900;8.146;2022-11-06T01:02:04;4.13;;;1.53;;
36593;SDS011;22603;47.900;8.146;2022-11-06T01:04:52;68.53;;;3.63;;
36593;SDS011;22603;47.900;8.146;2022-11-06T01:07:39;16.90;;;2.57;;
36593;SDS011;22603;47.900;8.146;2022-11-06T01:10:26;107.10;;;4.67;;
36593;SDS011;22603;47.900;8.146;2022-11-06T01:13:13;23.63;;;3.33;;
36593;SDS011;22603;47.900;8.146;2022-11-06T01:16:04;63.50;;;4.03;;
36593;SDS011;22603;47.900;8.146;2022-11-06T01:18:53;65.90;;;3.80;;
36593;SDS011;22603;47.900;8.146;2022-11-06T01:21:42;47.20;;;4.70;;
36593;SDS011;22603;47.900;8.146;2022-11-06T01:24:31;40.20;;;4.30;;
36593;SDS011;22603;47.900;8.146;2022-11-06T01:27:19;70.57;;;5.50;;
36593;SDS011;22603;47.900;8.146;2022-11-06T01:30:11;75.27;;;4.70;;
36593;SDS011;22603;47.900;8.146;2022-11-06T01:33:00;109.17;;;5.03;;
36593;SDS011;22603;47.900;8.146;2022-11-06T01:35:47;158.23;;;7.33;;
36593;SDS011;22603;47.900;8.146;2022-11-06T01:38:38;92.07;;;5.47;;
36593;SDS011;22603;47.900;8.146;2022-11-06T01:41:26;99.43;;;5.00;;
36593;SDS011;22603;47.900;8.146;2022-11-06T01:47:44;32.33;;;2.67;;
36593;SDS011;22603;47.900;8.146;2022-11-06T01:50:33;22.07;;;2.73;;
36593;SDS011;22603;47.900;8.146;2022-11-06T01:53:21;20.27;;;1.90;;
36593;SDS011;22603;47.900;8.146;2022-11-06T01:56:09;28.13;;;2.97;;
36593;SDS011;22603;47.900;8.146;2022-11-06T01:58:57;11.17;;;2.17;;
36593;SDS011;22603;47.900;8.146;2022-11-06T02:01:47;17.27;;;3.03;;
36593;SDS011;22603;47.900;8.146;2022-11-06T02:04:35;91.20;;;5.27;;
36593;SDS011;22603;47.900;8.146;2022-11-06T02:07:25;89.43;;;5.67;;
36593;SDS011;22603;47.900;8.146;2022-11-06T02:10:12;36.87;;;3.83;;
36593;SDS011;22603;47.900;8.146;2022-11-06T02:13:04;81.17;;;5.37;;
36593;SDS011;22603;47.900;8.146;2022-11-06T02:16:13;82.00;;;5.53;;
36593;SDS011;22603;47.900;8.146;2022-11-06T02:19:23;42.70;;;5.37;;
36593;SDS011;22603;47.900;8.146;2022-11-06T02:22:38;51.90;;;4.23;;
36593;SDS011;22603;47.900;8.146;2022-11-06T02:25:39;97.67;;;6.83;;
36593;SDS011;22603;47.900;8.146;2022-11-06T02:28:35;56.70;;;4.50;;
36593;SDS011;22603;47.900;8.146;2022-11-06T02:31:27;78.00;;;5.73;;
36593;SDS011;22603;47.900;8.146;2022-11-06T02:34:17;120.40;;;4.63;;
36593;SDS011;22603;47.900;8.146;2022-11-06T02:37:06;181.40;;;8.73;;
36593;SDS011;22603;47.900;8.146;2022-11-06T02:39:58;60.87;;;6.57;;
36593;SDS011;22603;47.900;8.146;2022-11-06T02:42:47;69.63;;;3.83;;
36593;SDS011;22603;47.900;8.146;2022-11-06T02:45:40;106.77;;;5.33;;
36593;SDS011;22603;47.900;8.146;2022-11-06T02:48:35;18.70;;;3.10;;
36593;SDS011;22603;47.900;8.146;2022-11-06T02:51:27;51.87;;;2.53;;
36593;SDS011;22603;47.900;8.146;2022-11-06T02:54:16;30.93;;;2.73;;
36593;SDS011;22603;47.900;8.146;2022-11-06T02:57:07;8.83;;;1.87;;
36593;SDS011;22603;47.900;8.146;2022-11-06T03:00:00;48.33;;;2.70;;
36593;SDS011;22603;47.900;8.146;2022-11-06T03:02:54;11.60;;;1.63;;
36593;SDS011;22603;47.900;8.146;2022-11-06T03:05:45;6.80;;;0.93;;
36593;SDS011;22603;47.900;8.146;2022-11-06T03:08:37;11.53;;;0.77;;
36593;SDS011;22603;47.900;8.146;2022-11-06T03:11:28;5.63;;;1.30;;
36593;SDS011;22603;47.900;8.146;2022-11-06T03:14:19;11.87;;;1.33;;
36593;SDS011;22603;47.900;8.146;2022-11-06T03:17:13;1.93;;;1.10;;
36593;SDS011;22603;47.900;8.146;2022-11-06T03:20:09;3.93;;;1.30;;
36593;SDS011;22603;47.900;8.146;2022-11-06T03:23:05;2.17;;;1.00;;
36593;SDS011;22603;47.900;8.146;2022-11-06T03:25:59;3.33;;;0.93;;
36593;SDS011;22603;47.900;8.146;2022-11-06T03:28:53;2.47;;;0.90;;
36593;SDS011;22603;47.900;8.146;2022-11-06T03:31:45;2.77;;;1.30;;
36593;SDS011;22603;47.900;8.146;2022-11-06T03:34:37;3.67;;;1.40;;
36593;SDS011;22603;47.900;8.146;2022-11-06T03:37:32;10.87;;;1.60;;
36593;SDS011;22603;47.900;8.146;2022-11-06T03:40:22;1.83;;;0.83;;
36593;SDS011;22603;47.900;8.146;2022-11-06T03:43:14;1.70;;;0.83;;
36593;SDS011;22603;47.900;8.146;2022-11-06T03:46:04;2.13;;;0.90;;
36593;SDS011;22603;47.900;8.146;2022-11-06T03:48:58;5.37;;;1.10;;
36593;SDS011;22603;47.900;8.146;2022-11-06T03:51:48;5.63;;;1.37;;
36593;SDS011;22603;47.900;8.146;2022-11-06T03:54:45;2.63;;;1.07;;
36593;SDS011;22603;47.900;8.146;2022-11-06T03:57:37;5.20;;;1.63;;
36593;SDS011;22603;47.900;8.146;2022-11-06T04:00:28;20.90;;;2.13;;
36593;SDS011;22603;47.900;8.146;2022-11-06T04:03:17;37.37;;;2.00;;
36593;SDS011;22603;47.900;8.146;2022-11-06T04:06:09;12.07;;;1.53;;
36593;SDS011;22603;47.900;8.146;2022-11-06T04:09:01;2.73;;;0.80;;
36593;SDS011;22603;47.900;8.146;2022-11-06T04:12:09;4.67;;;1.50;;
36593;SDS011;22603;47.900;8.146;2022-11-06T04:15:17;4.70;;;1.50;;
36593;SDS011;22603;47.900;8.146;2022-11-06T04:18:10;11.10;;;2.00;;
36593;SDS011;22603;47.900;8.146;2022-11-06T04:21:03;37.33;;;2.40;;
36593;SDS011;22603;47.900;8.146;2022-11-06T04:24:13;13.63;;;2.23;;
36593;SDS011;22603;47.900;8.146;2022-11-06T04:27:31;57.27;;;3.87;;
36593;SDS011;22603;47.900;8.146;2022-11-06T04:30:27;40.80;;;3.37;;
36593;SDS011;22603;47.900;8.146;2022-11-06T04:33:18;24.97;;;2.50;;
36593;SDS011;22603;47.900;8.146;2022-11-06T04:36:13;52.63;;;3.53;;
36593;SDS011;22603;47.900;8.146;2022-11-06T04:39:07;25.57;;;2.47;;
36593;SDS011;22603;47.900;8.146;2022-11-06T04:42:04;41.33;;;3.33;;
36593;SDS011;22603;47.900;8.146;2022-11-06T04:44:59;78.03;;;5.07;;
36593;SDS011;22603;47.900;8.146;2022-11-06T04:47:49;69.97;;;4.20;;
36593;SDS011;22603;47.900;8.146;2022-11-06T04:50:38;47.33;;;4.17;;
36593;SDS011;22603;47.900;8.146;2022-11-06T04:53:30;92.67;;;4.00;;
36593;SDS011;22603;47.900;8.146;2022-11-06T04:56:24;115.30;;;6.20;;
36593;SDS011;22603;47.900;8.146;2022-11-06T04:59:18;95.17;;;6.20;;
36593;SDS011;22603;47.900;8.146;2022-11-06T05:02:07;136.17;;;8.67;;
36593;SDS011;22603;47.900;8.146;2022-11-06T05:04:55;86.30;;;5.23;;
36593;SDS011;22603;47.900;8.146;2022-11-06T05:07:41;67.97;;;5.23;;
36593;SDS011;22603;47.900;8.146;2022-11-06T05:10:28;59.70;;;4.60;;
36593;SDS011;22603;47.900;8.146;2022-11-06T05:13:15;127.17;;;7.20;;
36593;SDS011;22603;47.900;8.146;2022-11-06T05:16:02;209.13;;;10.73;;
36593;SDS011;22603;47.900;8.146;2022-11-06T05:18:51;78.93;;;6.13;;
36593;SDS011;22603;47.900;8.146;2022-11-06T05:21:39;87.97;;;5.63;;
36593;SDS011;22603;47.900;8.146;2022-11-06T05:24:43;105.90;;;8.43;;
36593;SDS011;22603;47.900;8.146;2022-11-06T05:27:30;139.67;;;7.33;;
36593;SDS011;22603;47.900;8.146;2022-11-06T05:30:18;64.23;;;4.07;;
36593;SDS011;22603;47.900;8.146;2022-11-06T05:33:14;11.70;;;1.90;;
36593;SDS011;22603;47.900;8.146;2022-11-06T05:36:02;7.23;;;2.00;;
36593;SDS011;22603;47.900;8.146;2022-11-06T05:38:50;11.07;;;1.67;;
36593;SDS011;22603;47.900;8.146;2022-11-06T05:41:37;9.83;;;2.07;;
36593;SDS011;22603;47.900;8.146;2022-11-06T05:44:24;8.80;;;1.67;;
36593;SDS011;22603;47.900;8.146;2022-11-06T05:47:11;26.17;;;2.10;;
36593;SDS011;22603;47.900;8.146;2022-11-06T05:49:58;24.17;;;2.33;;
36593;SDS011;22603;47.900;8.146;2022-11-06T05:52:46;65.20;;;5.20;;
36593;SDS011;22603;47.900;8.146;2022-11-06T05:55:33;15.20;;;2.47;;
36593;SDS011;22603;47.900;8.146;2022-11-06T05:58:21;24.03;;;2.33;;
36593;SDS011;22603;47.900;8.146;2022-11-06T06:01:08;21.17;;;3.23;;
36593;SDS011;22603;47.900;8.146;2022-11-06T06:03:55;77.23;;;4.17;;
36593;SDS011;22603;47.900;8.146;2022-11-06T06:06:42;32.67;;;3.70;;
36593;SDS011;22603;47.900;8.146;2022-11-06T06:09:31;12.23;;;2.17;;
36593;SDS011;22603;47.900;8.146;2022-11-06T06:12:18;32.40;;;3.43;;
36593;SDS011;22603;47.900;8.146;2022-11-06T06:15:08;12.70;;;2.53;;
36593;SDS011;22603;47.900;8.146;2022-11-06T06:17:56;49.10;;;3.93;;
36593;SDS011;22603;47.900;8.146;2022-11-06T06:20:43;9.97;;;1.90;;
36593;SDS011;22603;47.900;8.146;2022-11-06T06:23:30;14.40;;;2.03;;
36593;SDS011;22603;47.900;8.146;2022-11-06T06:26:18;26.50;;;1.93;;
36593;SDS011;22603;47.900;8.146;2022-11-06T06:29:05;29.10;;;2.33;;
36593;SDS011;22603;47.900;8.146;2022-11-06T06:31:53;20.43;;;2.40;;
36593;SDS011;22603;47.900;8.146;2022-11-06T06:34:39;41.43;;;2.33;;
36593;SDS011;22603;47.900;8.146;2022-11-06T06:37:26;45.13;;;3.90;;
36593;SDS011;22603;47.900;8.146;2022-11-06T06:40:13;65.57;;;4.47;;
36593;SDS011;22603;47.900;8.146;2022-11-06T06:43:02;171.23;;;10.03;;
36593;SDS011;22603;47.900;8.146;2022-11-06T06:45:49;85.43;;;5.90;;
36593;SDS011;22603;47.900;8.146;2022-11-06T06:48:37;83.20;;;6.17;;
36593;SDS011;22603;47.900;8.146;2022-11-06T06:51:24;68.80;;;3.93;;
36593;SDS011;22603;47.900;8.146;2022-11-06T06:54:11;49.93;;;5.33;;
36593;SDS011;22603;47.900;8.146;2022-11-06T06:56:58;193.90;;;8.53;;
36593;SDS011;22603;47.900;8.146;2022-11-06T06:59:46;125.23;;;5.80;;
36593;SDS011;22603;47.900;8.146;2022-11-06T07:02:33;196.23;;;11.07;;
36593;SDS011;22603;47.900;8.146;2022-11-06T07:05:20;189.50;;;11.43;;
36593;SDS011;22603;47.900;8.146;2022-11-06T07:08:07;77.60;;;5.77;;
36593;SDS011;22603;47.900;8.146;2022-11-06T07:10:57;48.13;;;5.03;;
36593;SDS011;22603;47.900;8.146;2022-11-06T07:13:46;72.90;;;5.73;;
36593;SDS011;22603;47.900;8.146;2022-11-06T07:16:34;66.27;;;6.57;;
36593;SDS011;22603;47.900;8.146;2022-11-06T07:19:21;65.20;;;6.57;;
36593;SDS011;22603;47.900;8.146;2022-11-06T07:22:08;59.53;;;4.20;;
36593;SDS011;22603;47.900;8.146;2022-11-06T07:24:56;45.27;;;3.70;;
36593;SDS011;22603;47.900;8.146;2022-11-06T07:27:43;94.93;;;5.27;;
36593;SDS011;22603;47.900;8.146;2022-11-06T07:30:30;55.87;;;3.13;;
36593;SDS011;22603;47.900;8.146;2022-11-06T07:33:18;19.83;;;2.90;;
36593;SDS011;22603;47.900;8.146;2022-11-06T07:36:06;163.33;;;7.40;;
36593;SDS011;22603;47.900;8.146;2022-11-06T07:38:54;58.73;;;4.17;;
36593;SDS011;22603;47.900;8.146;2022-11-06T07:41:43;31.83;;;2.73;;
36593;SDS011;22603;47.900;8.146;2022-11-06T07:44:30;41.23;;;3.37;;
36593;SDS011;22603;47.900;8.146;2022-11-06T07:47:17;17.50;;;3.17;;
36593;SDS011;22603;47.900;8.146;2022-11-06T07:50:06;18.60;;;3.50;;
36593;SDS011;22603;47.900;8.146;2022-11-06T07:52:53;45.83;;;3.00;;
36593;SDS011;22603;47.900;8.146;2022-11-06T07:55:46;20.50;;;2.73;;
36593;SDS011;22603;47.900;8.146;2022-11-06T07:58:34;17.43;;;2.50;;
36593;SDS011;22603;47.900;8.146;2022-11-06T08:01:20;13.90;;;2.47;;
36593;SDS011;22603;47.900;8.146;2022-11-06T08:04:08;26.90;;;3.17;;
36593;SDS011;22603;47.900;8.146;2022-11-06T08:06:57;12.37;;;2.27;;
36593;SDS011;22603;47.900;8.146;2022-11-06T08:09:44;5.50;;;2.07;;
36593;SDS011;22603;47.900;8.146;2022-11-06T08:12:31;46.57;;;3.60;;
36593;SDS011;22603;47.900;8.146;2022-11-06T08:15:18;8.33;;;2.80;;
36593;SDS011;22603;47.900;8.146;2022-11-06T08:18:05;24.77;;;3.77;;
36593;SDS011;22603;47.900;8.146;2022-11-06T08:20:53;31.60;;;3.40;;
36593;SDS011;22603;47.900;8.146;2022-11-06T08:23:41;56.90;;;4.57;;
36593;SDS011;22603;47.900;8.146;2022-11-06T08:26:28;60.40;;;6.87;;
36593;SDS011;22603;47.900;8.146;2022-11-06T08:29:16;23.87;;;3.47;;
36593;SDS011;22603;47.900;8.146;2022-11-06T08:32:03;29.13;;;3.43;;
36593;SDS011;22603;47.900;8.146;2022-11-06T08:34:50;22.43;;;2.83;;
36593;SDS011;22603;47.900;8.146;2022-11-06T08:37:37;11.57;;;2.40;;
36593;SDS011;22603;47.900;8.146;2022-11-06T08:40:25;9.60;;;2.43;;
36593;SDS011;22603;47.900;8.146;2022-11-06T08:43:15;10.83;;;2.63;;
36593;SDS011;22603;47.900;8.146;2022-11-06T08:46:02;8.07;;;2.10;;
36593;SDS011;22603;47.900;8.146;2022-11-06T08:48:50;35.13;;;3.17;;
36593;SDS011;22603;47.900;8.146;2022-11-06T08:51:38;42.80;;;3.63;;
36593;SDS011;22603;47.900;8.146;2022-11-06T08:54:25;9.73;;;2.67;;
36593;SDS011;22603;47.900;8.146;2022-11-06T08:57:15;11.30;;;2.40;;
36593;SDS011;22603;47.900;8.146;2022-11-06T09:00:02;7.57;;;2.30;;
36593;SDS011;22603;47.900;8.146;2022-11-06T09:02:50;4.67;;;1.50;;
36593;SDS011;22603;47.900;8.146;2022-11-06T09:05:42;4.90;;;1.70;;
36593;SDS011;22603;47.900;8.146;2022-11-06T09:08:30;5.40;;;2.20;;
36593;SDS011;22603;47.900;8.146;2022-11-06T09:11:17;6.00;;;2.00;;
36593;SDS011;22603;47.900;8.146;2022-11-06T09:14:05;3.07;;;1.37;;
36593;SDS011;22603;47.900;8.146;2022-11-06T09:16:53;4.73;;;2.20;;
36593;SDS011;22603;47.900;8.146;2022-11-06T09:19:39;5.13;;;2.10;;
36593;SDS011;22603;47.900;8.146;2022-11-06T09:22:26;5.93;;;1.90;;
36593;SDS011;22603;47.900;8.146;2022-11-06T09:25:13;6.00;;;2.07;;
36593;SDS011;22603;47.900;8.146;2022-11-06T09:28:01;5.53;;;2.10;;
36593;SDS011;22603;47.900;8.146;2022-11-06T09:30:50;5.67;;;1.90;;
36593;SDS011;22603;47.900;8.146;2022-11-06T09:33:38;6.50;;;2.10;;
36593;SDS011;22603;47.900;8.146;2022-11-06T09:36:25;4.87;;;1.73;;
36593;SDS011;22603;47.900;8.146;2022-11-06T09:39:12;5.87;;;2.13;;
36593;SDS011;22603;47.900;8.146;2022-11-06T09:42:05;8.00;;;2.57;;
36593;SDS011;22603;47.900;8.146;2022-11-06T09:45:10;6.00;;;2.40;;
36593;SDS011;22603;47.900;8.146;2022-11-06T09:48:03;7.43;;;2.80;;
36593;SDS011;22603;47.900;8.146;2022-11-06T09:51:08;9.40;;;2.67;;
36593;SDS011;22603;47.900;8.146;2022-11-06T09:54:02;8.70;;;2.70;;
36593;SDS011;22603;47.900;8.146;2022-11-06T09:56:58;7.50;;;2.90;;
36593;SDS011;22603;47.900;8.146;2022-11-06T09:59:47;7.83;;;2.60;;
36593;SDS011;22603;47.900;8.146;2022-11-06T10:02:39;7.60;;;3.00;;
36593;SDS011;22603;47.900;8.146;2022-11-06T10:05:31;6.13;;;2.30;;
36593;SDS011;22603;47.900;8.146;2022-11-06T10:08:20;6.73;;;2.70;;
36593;SDS011;22603;47.900;8.146;2022-11-06T10:11:19;6.17;;;2.50;;
36593;SDS011;22603;47.900;8.146;2022-11-06T10:14:19;8.48;;;2.95;;
36593;SDS011;22603;47.900;8.146;2022-11-06T10:17:19;7.00;;;2.63;;
36593;SDS011;22603;47.900;8.146;2022-11-06T10:20:20;6.28;;;2.10;;
36593;SDS011;22603;47.900;8.146;2022-11-06T10:23:17;5.97;;;2.00;;
36593;SDS011;22603;47.900;8.146;2022-11-06T10:26:10;6.47;;;2.63;;
36593;SDS011;22603;47.900;8.146;2022-11-06T10:29:06;9.57;;;2.60;;
36593;SDS011;22603;47.900;8.146;2022-11-06T10:32:26;6.97;;;2.80;;
36593;SDS011;22603;47.900;8.146;2022-11-06T10:35:21;6.78;;;2.85;;
36593;SDS011;22603;47.900;8.146;2022-11-06T10:38:11;6.97;;;2.42;;
36593;SDS011;22603;47.900;8.146;2022-11-06T10:41:02;7.50;;;2.50;;
36593;SDS011;22603;47.900;8.146;2022-11-06T10:43:50;7.15;;;2.35;;
36593;SDS011;22603;47.900;8.146;2022-11-06T10:46:42;5.93;;;1.95;;
36593;SDS011;22603;47.900;8.146;2022-11-06T10:49:34;6.45;;;2.15;;
36593;SDS011;22603;47.900;8.146;2022-11-06T10:52:40;6.07;;;2.70;;
36593;SDS011;22603;47.900;8.146;2022-11-06T10:55:40;8.82;;;2.42;;
36593;SDS011;22603;47.900;8.146;2022-11-06T10:58:37;6.07;;;2.17;;
36593;SDS011;22603;47.900;8.146;2022-11-06T11:01:25;5.72;;;1.92;;
36593;SDS011;22603;47.900;8.146;2022-11-06T11:04:12;3.22;;;1.48;;
36593;SDS011;22603;47.900;8.146;2022-11-06T11:07:01;3.33;;;1.40;;
36593;SDS011;22603;47.900;8.146;2022-11-06T11:10:24;4.35;;;1.40;;
36593;SDS011;22603;47.900;8.146;2022-11-06T11:13:18;1.73;;;0.98;;
36593;SDS011;22603;47.900;8.146;2022-11-06T11:16:11;1.83;;;0.90;;
36593;SDS011;22603;47.900;8.146;2022-11-06T11:19:13;2.10;;;0.88;;
36593;SDS011;22603;47.900;8.146;2022-11-06T11:22:16;1.77;;;0.90;;
36593;SDS011;22603;47.900;8.146;2022-11-06T11:25:05;2.60;;;1.08;;
36593;SDS011;22603;47.900;8.146;2022-11-06T11:27:53;3.28;;;1.20;;
36593;SDS011;22603;47.900;8.146;2022-11-06T11:30:49;3.20;;;1.33;;
36593;SDS011;22603;47.900;8.146;2022-11-06T11:33:38;1.05;;;0.63;;
36593;SDS011;22603;47.900;8.146;2022-11-06T11:36:29;2.17;;;1.00;;
36593;SDS011;22603;47.900;8.146;2022-11-06T11:39:34;4.05;;;0.90;;
36593;SDS011;22603;47.900;8.146;2022-11-06T11:42:24;2.80;;;0.90;;
36593;SDS011;22603;47.900;8.146;2022-11-06T11:45:17;1.40;;;0.80;;
36593;SDS011;22603;47.900;8.146;2022-11-06T11:48:10;1.83;;;0.90;;
36593;SDS011;22603;47.900;8.146;2022-11-06T11:51:08;1.38;;;0.75;;
36593;SDS011;22603;47.900;8.146;2022-11-06T11:53:59;2.28;;;0.77;;
36593;SDS011;22603;47.900;8.146;2022-11-06T11:56:51;1.15;;;0.80;;
36593;SDS011;22603;47.900;8.146;2022-11-06T11:59:51;1.05;;;0.70;;
36593;SDS011;22603;47.900;8.146;2022-11-06T12:02:44;1.27;;;0.73;;
36593;SDS011;22603;47.900;8.146;2022-11-06T12:05:36;0.70;;;0.52;;
36593;SDS011;22603;47.900;8.146;2022-11-06T12:08:26;0.82;;;0.70;;
36593;SDS011;22603;47.900;8.146;2022-11-06T12:11:15;1.15;;;0.68;;
36593;SDS011;22603;47.900;8.146;2022-11-06T12:17:19;2.67;;;0.90;;
36593;SDS011;22603;47.900;8.146;2022-11-06T12:20:10;1.03;;;0.80;;
36593;SDS011;22603;47.900;8.146;2022-11-06T12:23:01;1.40;;;0.70;;
36593;SDS011;22603;47.900;8.146;2022-11-06T12:25:53;2.00;;;0.90;;
36593;SDS011;22603;47.900;8.146;2022-11-06T12:28:44;3.27;;;1.07;;
36593;SDS011;22603;47.900;8.146;2022-11-06T12:31:35;1.40;;;0.87;;
36593;SDS011;22603;47.900;8.146;2022-11-06T12:34:27;4.33;;;0.80;;
36593;SDS011;22603;47.900;8.146;2022-11-06T12:37:20;2.00;;;0.80;;
36593;SDS011;22603;47.900;8.146;2022-11-06T12:40:24;2.00;;;0.80;;
36593;SDS011;22603;47.900;8.146;2022-11-06T12:43:18;1.33;;;0.77;;
36593;SDS011;22603;47.900;8.146;2022-11-06T12:46:20;1.17;;;0.80;;
36593;SDS011;22603;47.900;8.146;2022-11-06T12:49:32;3.20;;;0.50;;
36593;SDS011;22603;47.900;8.146;2022-11-06T12:52:44;1.30;;;0.60;;
36593;SDS011;22603;47.900;8.146;2022-11-06T12:55:50;0.83;;;0.53;;
36593;SDS011;22603;47.900;8.146;2022-11-06T12:58:57;0.83;;;0.60;;
36593;SDS011;22603;47.900;8.146;2022-11-06T13:01:53;0.70;;;0.50;;
36593;SDS011;22603;47.900;8.146;2022-11-06T13:04:49;0.47;;;0.47;;
36593;SDS011;22603;47.900;8.146;2022-11-06T13:11:01;2.43;;;0.60;;
36593;SDS011;22603;47.900;8.146;2022-11-06T13:13:57;0.77;;;0.30;;
36593;SDS011;22603;47.900;8.146;2022-11-06T13:16:56;2.53;;;0.60;;
36593;SDS011;22603;47.900;8.146;2022-11-06T13:19:50;0.83;;;0.57;;
36593;SDS011;22603;47.900;8.146;2022-11-06T13:22:43;1.30;;;0.60;;
36593;SDS011;22603;47.900;8.146;2022-11-06T13:25:38;0.70;;;0.60;;
36593;SDS011;22603;47.900;8.146;2022-11-06T13:28:34;0.67;;;0.60;;
36593;SDS011;22603;47.900;8.146;2022-11-06T13:31:29;0.73;;;0.60;;
36593;SDS011;22603;47.900;8.146;2022-11-06T13:34:22;1.30;;;0.70;;
36593;SDS011;22603;47.900;8.146;2022-11-06T13:37:13;0.53;;;0.50;;
36593;SDS011;22603;47.900;8.146;2022-11-06T13:40:03;0.50;;;0.50;;
36593;SDS011;22603;47.900;8.146;2022-11-06T13:43:01;3.07;;;0.70;;
36593;SDS011;22603;47.900;8.146;2022-11-06T13:45:52;1.07;;;0.67;;
36593;SDS011;22603;47.900;8.146;2022-11-06T13:48:47;1.17;;;0.77;;
36593;SDS011;22603;47.900;8.146;2022-11-06T13:51:42;1.77;;;0.73;;
36593;SDS011;22603;47.900;8.146;2022-11-06T13:54:41;0.57;;;0.57;;
36593;SDS011;22603;47.900;8.146;2022-11-06T13:57:51;1.20;;;0.63;;
36593;SDS011;22603;47.900;8.146;2022-11-06T14:00:55;0.93;;;0.80;;
36593;SDS011;22603;47.900;8.146;2022-11-06T14:03:59;4.90;;;0.60;;
36593;SDS011;22603;47.900;8.146;2022-11-06T14:07:01;0.50;;;0.50;;
36593;SDS011;22603;47.900;8.146;2022-11-06T14:09:51;0.83;;;0.60;;
36593;SDS011;22603;47.900;8.146;2022-11-06T14:12:38;1.53;;;0.53;;
36593;SDS011;22603;47.900;8.146;2022-11-06T14:15:33;0.70;;;0.60;;
36593;SDS011;22603;47.900;8.146;2022-11-06T14:18:23;0.77;;;0.60;;
36593;SDS011;22603;47.900;8.146;2022-11-06T14:21:26;1.47;;;0.70;;
36593;SDS011;22603;47.900;8.146;2022-11-06T14:24:34;1.53;;;0.80;;
36593;SDS011;22603;47.900;8.146;2022-11-06T14:30:42;0.80;;;0.60;;
36593;SDS011;22603;47.900;8.146;2022-11-06T14:33:56;1.57;;;0.70;;
36593;SDS011;22603;47.900;8.146;2022-11-06T14:36:49;4.80;;;0.70;;
36593;SDS011;22603;47.900;8.146;2022-11-06T14:42:50;3.10;;;0.60;;
36593;SDS011;22603;47.900;8.146;2022-11-06T14:45:37;1.77;;;0.70;;
36593;SDS011;22603;47.900;8.146;2022-11-06T14:48:29;1.17;;;0.60;;
36593;SDS011;22603;47.900;8.146;2022-11-06T14:51:23;0.50;;;0.50;;
36593;SDS011;22603;47.900;8.146;2022-11-06T14:54:20;1.80;;;0.60;;
36593;SDS011;22603;47.900;8.146;2022-11-06T14:57:11;1.17;;;0.60;;
36593;SDS011;22603;47.900;8.146;2022-11-06T15:00:02;1.40;;;0.60;;
36593;SDS011;22603;47.900;8.146;2022-11-06T15:02:49;0.40;;;0.40;;
36593;SDS011;22603;47.900;8.146;2022-11-06T15:05:36;0.50;;;0.43;;
36593;SDS011;22603;47.900;8.146;2022-11-06T15:11:58;0.83;;;0.50;;
36593;SDS011;22603;47.900;8.146;2022-11-06T15:14:56;5.20;;;1.80;;
36593;SDS011;22603;47.900;8.146;2022-11-06T15:17:49;4.00;;;1.50;;
36593;SDS011;22603;47.900;8.146;2022-11-06T15:20:37;4.03;;;1.70;;
36593;SDS011;22603;47.900;8.146;2022-11-06T15:23:53;1.80;;;0.80;;
36593;SDS011;22603;47.900;8.146;2022-11-06T15:26:47;14.63;;;3.70;;
36593;SDS011;22603;47.900;8.146;2022-11-06T15:29:39;13.57;;;4.07;;
36593;SDS011;22603;47.900;8.146;2022-11-06T15:32:28;1.20;;;0.70;;
36593;SDS011;22603;47.900;8.146;2022-11-06T15:35:18;5.53;;;1.80;;
36593;SDS011;22603;47.900;8.146;2022-11-06T15:38:09;2.20;;;0.90;;
36593;SDS011;22603;47.900;8.146;2022-11-06T15:41:01;8.43;;;2.43;;
36593;SDS011;22603;47.900;8.146;2022-11-06T15:43:48;0.97;;;0.40;;
36593;SDS011;22603;47.900;8.146;2022-11-06T15:46:40;0.93;;;0.60;;
36593;SDS011;22603;47.900;8.146;2022-11-06T15:49:37;1.03;;;0.67;;
36593;SDS011;22603;47.900;8.146;2022-11-06T15:52:25;0.80;;;0.53;;
36593;SDS011;22603;47.900;8.146;2022-11-06T15:55:12;0.83;;;0.60;;
36593;SDS011;22603;47.900;8.146;2022-11-06T15:58:08;0.87;;;0.60;;
36593;SDS011;22603;47.900;8.146;2022-11-06T16:01:14;2.43;;;0.90;;
36593;SDS011;22603;47.900;8.146;2022-11-06T16:04:19;1.37;;;0.70;;
36593;SDS011;22603;47.900;8.146;2022-11-06T16:07:09;1.00;;;0.63;;
36593;SDS011;22603;47.900;8.146;2022-11-06T16:09:57;1.73;;;0.60;;
36593;SDS011;22603;47.900;8.146;2022-11-06T16:12:44;1.53;;;0.80;;
36593;SDS011;22603;47.900;8.146;2022-11-06T16:15:46;1.17;;;0.77;;
36593;SDS011;22603;47.900;8.146;2022-11-06T16:18:37;3.10;;;1.37;;
36593;SDS011;22603;47.900;8.146;2022-11-06T16:21:30;5.73;;;2.10;;
36593;SDS011;22603;47.900;8.146;2022-11-06T16:24:19;9.50;;;3.17;;
36593;SDS011;22603;47.900;8.146;2022-11-06T16:27:06;7.60;;;3.03;;
36593;SDS011;22603;47.900;8.146;2022-11-06T16:29:54;2.20;;;1.10;;
36593;SDS011;22603;47.900;8.146;2022-11-06T16:32:44;2.20;;;1.10;;
36593;SDS011;22603;47.900;8.146;2022-11-06T16:35:33;3.83;;;0.80;;
36593;SDS011;22603;47.900;8.146;2022-11-06T16:41:35;1.50;;;0.70;;
36593;SDS011;22603;47.900;8.146;2022-11-06T16:44:47;0.53;;;0.40;;
36593;SDS011;22603;47.900;8.146;2022-11-06T16:47:35;0.73;;;0.57;;
36593;SDS011;22603;47.900;8.146;2022-11-06T16:50:41;0.77;;;0.50;;
36593;SDS011;22603;47.900;8.146;2022-11-06T16:53:30;0.93;;;0.40;;
36593;SDS011;22603;47.900;8.146;2022-11-06T16:56:29;0.50;;;0.50;;
36593;SDS011;22603;47.900;8.146;2022-11-06T16:59:21;1.60;;;0.50;;
36593;SDS011;22603;47.900;8.146;2022-11-06T17:02:18;0.83;;;0.60;;
36593;SDS011;22603;47.900;8.146;2022-11-06T17:05:07;0.37;;;0.37;;
36593;SDS011;22603;47.900;8.146;2022-11-06T17:08:03;0.93;;;0.60;;
36593;SDS011;22603;47.900;8.146;2022-11-06T17:10:52;1.13;;;0.50;;
36593;SDS011;22603;47.900;8.146;2022-11-06T17:13:41;0.40;;;0.40;;
36593;SDS011;22603;47.900;8.146;2022-11-06T17:16:50;0.80;;;0.50;;
36593;SDS011;22603;47.900;8.146;2022-11-06T17:19:57;1.60;;;0.63;;
36593;SDS011;22603;47.900;8.146;2022-11-06T17:22:44;0.83;;;0.50;;
36593;SDS011;22603;47.900;8.146;2022-11-06T17:25:31;0.40;;;0.40;;
36593;SDS011;22603;47.900;8.146;2022-11-06T17:28:18;0.73;;;0.60;;
36593;SDS011;22603;47.900;8.146;2022-11-06T17:31:10;5.20;;;0.53;;